createdAt,value
2023-02-04T00:00:37.490Z,6.40
2023-02-04T00:04:40.564Z,6.70
2023-02-04T00:08:43.323Z,6.70
2023-02-04T00:12:46.088Z,6.60
2023-02-04T00:16:50.206Z,6.70
2023-02-04T00:20:53.050Z,6.80
2023-02-04T00:24:55.920Z,6.50
2023-02-04T00:28:58.712Z,6.50
2023-02-04T00:33:02.883Z,6.30
2023-02-04T00:37:05.722Z,6.50
2023-02-04T00:41:08.531Z,6.20
2023-02-04T00:45:11.568Z,6.30
2023-02-04T00:49:15.934Z,6.30
2023-02-04T00:53:18.740Z,6.40
2023-02-04T00:57:21.571Z,6.30
2023-02-04T01:01:24.423Z,6.10
2023-02-04T01:05:28.625Z,6.10
2023-02-04T01:09:31.355Z,6.10
2023-02-04T01:13:34.085Z,6.10
2023-02-04T01:17:36.835Z,6.10
2023-02-04T01:21:41.265Z,6.10
2023-02-04T01:25:44.216Z,6.10
2023-02-04T01:29:47.033Z,6.10
2023-02-04T01:33:49.841Z,6.10
2023-02-04T01:37:55.337Z,6.00
2023-02-04T01:41:58.212Z,6.00
2023-02-04T01:46:02.579Z,6.00
2023-02-04T01:50:06.201Z,6.10
2023-02-04T01:54:12.863Z,6.20
2023-02-04T01:58:16.452Z,6.30
2023-02-04T02:02:41.706Z,6.20
2023-02-04T02:06:49.318Z,6.30
2023-02-04T02:10:53.525Z,6.30
2023-02-04T02:14:56.691Z,6.30
2023-02-04T02:19:00.043Z,6.30
2023-02-04T02:23:07.590Z,6.20
2023-02-04T02:27:12.827Z,6.30
2023-02-04T02:31:16.135Z,6.30
2023-02-04T02:35:19.302Z,6.30
2023-02-04T02:39:22.789Z,6.30
2023-02-04T02:43:29.409Z,6.20
2023-02-04T02:47:32.308Z,6.20
2023-02-04T02:51:35.213Z,6.30
2023-02-04T02:55:38.748Z,6.40
2023-02-04T02:59:43.662Z,6.30
2023-02-04T03:03:50.355Z,6.30
2023-02-04T03:07:53.294Z,6.30
2023-02-04T03:11:56.283Z,6.40
2023-02-04T03:16:01.347Z,6.30
2023-02-04T03:20:06.448Z,6.30
2023-02-04T03:24:09.991Z,6.40
2023-02-04T03:28:13.816Z,6.30
2023-02-04T03:32:18.286Z,6.40
2023-02-04T03:36:21.055Z,6.30
2023-02-04T03:40:23.895Z,6.30
2023-02-04T03:44:27.064Z,6.30
2023-02-04T03:48:31.272Z,6.20
2023-02-04T03:52:34.044Z,6.00
2023-02-04T03:56:36.859Z,5.90
2023-02-04T04:00:39.872Z,5.90
2023-02-04T04:04:44.233Z,5.80
2023-02-04T04:08:47.035Z,5.60
2023-02-04T04:12:49.803Z,5.50
2023-02-04T04:16:52.564Z,5.40
2023-02-04T04:20:56.684Z,5.40
2023-02-04T04:24:59.604Z,5.40
2023-02-04T04:29:02.388Z,5.40
2023-02-04T04:33:05.215Z,5.30
2023-02-04T04:37:09.379Z,5.30
2023-02-04T04:41:12.176Z,5.20
2023-02-04T04:45:15.394Z,5.20
2023-02-04T04:49:18.217Z,5.10
2023-02-04T04:53:22.418Z,5.00
2023-02-04T04:57:25.275Z,5.00
2023-02-04T05:01:28.065Z,5.00
2023-02-04T05:05:30.908Z,5.00
2023-02-04T05:09:35.174Z,4.90
2023-02-04T05:13:37.951Z,4.90
2023-02-04T05:17:40.756Z,4.90
2023-02-04T05:21:44.626Z,4.90
2023-02-04T05:25:48.836Z,4.90
2023-02-04T05:29:51.622Z,4.90
2023-02-04T05:33:54.555Z,4.90
2023-02-04T05:37:57.309Z,5.10
2023-02-04T05:42:01.550Z,5.00
2023-02-04T05:46:04.729Z,5.10
2023-02-04T05:50:08.594Z,4.90
2023-02-04T05:54:11.378Z,4.90
2023-02-04T05:58:15.566Z,4.80
2023-02-04T06:02:18.486Z,4.80
2023-02-04T06:06:21.241Z,4.90
2023-02-04T06:10:24.032Z,4.90
2023-02-04T06:14:28.208Z,4.70
2023-02-04T06:18:31.060Z,4.60
2023-02-04T06:22:33.903Z,4.60
2023-02-04T06:26:36.753Z,4.60
2023-02-04T06:30:41.044Z,4.50
2023-02-04T06:34:43.985Z,4.50
2023-02-04T06:38:46.790Z,4.50
2023-02-04T06:42:49.617Z,4.50
2023-02-04T06:46:53.758Z,4.50
2023-02-04T06:50:56.504Z,4.60
2023-02-04T06:54:59.294Z,4.50
2023-02-04T06:59:03.366Z,4.70
2023-02-04T07:03:08.211Z,4.80
2023-02-04T07:07:11.636Z,4.90
2023-02-04T07:11:14.484Z,4.90
2023-02-04T07:15:17.497Z,5.00
2023-02-04T07:19:22.965Z,5.20
2023-02-04T07:23:27.988Z,5.20
2023-02-04T07:27:30.870Z,5.40
2023-02-04T07:31:33.830Z,5.50
2023-02-04T07:35:38.925Z,5.50
2023-02-04T07:39:41.842Z,5.60
2023-02-04T07:43:44.784Z,5.70
2023-02-04T07:47:47.591Z,6.10
2023-02-04T07:51:51.773Z,6.30
2023-02-04T07:55:54.590Z,6.30
2023-02-04T07:59:57.744Z,6.20
2023-02-04T08:04:00.570Z,6.30
2023-02-04T08:08:04.774Z,6.40
2023-02-04T08:12:07.669Z,6.50
2023-02-04T08:16:11.913Z,6.40
2023-02-04T08:20:14.829Z,6.50
2023-02-04T08:24:19.062Z,6.50
2023-02-04T08:28:21.936Z,6.60
2023-02-04T08:32:24.729Z,6.90
2023-02-04T08:36:27.497Z,6.90
2023-02-04T08:40:32.126Z,7.10
2023-02-04T08:44:35.105Z,7.10
2023-02-04T08:48:37.924Z,7.10
2023-02-04T08:52:40.736Z,7.10
2023-02-04T08:56:44.896Z,7.10
2023-02-04T09:00:47.750Z,7.10
2023-02-04T09:04:50.967Z,7.20
2023-02-04T09:08:53.744Z,7.20
2023-02-04T09:12:57.941Z,7.30
2023-02-04T09:17:01.303Z,7.50
2023-02-04T09:21:04.234Z,7.70
2023-02-04T09:25:07.824Z,7.70
2023-02-04T09:29:11.973Z,7.70
2023-02-04T09:33:16.541Z,7.60
2023-02-04T09:37:19.358Z,7.70
2023-02-04T09:41:22.219Z,7.80
2023-02-04T09:45:28.287Z,7.90
2023-02-04T09:49:31.219Z,7.90
2023-02-04T09:53:35.218Z,8.10
2023-02-04T09:57:37.990Z,8.30
2023-02-04T10:01:42.294Z,9.20
2023-02-04T10:05:46.462Z,11.30
2023-02-04T10:09:50.503Z,12.20
2023-02-04T10:13:55.914Z,13.20
2023-02-04T10:18:04.355Z,14.00
2023-02-04T10:22:16.912Z,15.30
2023-02-04T10:26:21.769Z,15.80
2023-02-04T10:30:26.611Z,14.70
2023-02-04T10:34:37.876Z,14.10
2023-02-04T10:38:40.837Z,14.00
2023-02-04T10:42:51.704Z,13.50
2023-02-04T10:47:00.610Z,13.20
2023-02-04T10:51:05.128Z,12.70
2023-02-04T10:55:13.456Z,12.70
2023-02-04T10:59:26.701Z,12.80
2023-02-04T11:03:31.740Z,13.50
2023-02-04T11:08:31.891Z,14.20
2023-02-04T11:12:42.863Z,15.30
2023-02-04T11:16:49.349Z,15.90
2023-02-04T11:20:54.307Z,15.90
2023-02-04T11:24:58.167Z,15.20
2023-02-04T11:29:27.493Z,15.40
2023-02-04T11:33:39.671Z,17.00
2023-02-04T11:37:45.060Z,19.20
2023-02-04T11:41:48.206Z,20.90
2023-02-04T11:46:03.417Z,22.60
2023-02-04T11:50:15.931Z,22.90
2023-02-04T11:54:21.361Z,19.90
2023-02-04T11:58:26.050Z,17.80
2023-02-04T12:02:43.347Z,16.00
2023-02-04T12:06:57.617Z,14.80
2023-02-04T12:11:03.501Z,13.90
2023-02-04T12:15:16.076Z,13.80
2023-02-04T12:19:20.236Z,13.70
2023-02-04T12:23:23.187Z,13.80
2023-02-04T12:27:25.993Z,13.80
2023-02-04T12:31:28.862Z,13.30
2023-02-04T12:35:33.335Z,12.50
2023-02-04T12:39:36.324Z,11.20
2023-02-04T12:43:39.051Z,11.10
2023-02-04T12:47:43.206Z,11.20
2023-02-04T12:51:47.366Z,11.10
2023-02-04T12:55:50.261Z,11.00
2023-02-04T12:59:57.821Z,10.90
2023-02-04T13:04:00.625Z,10.80
2023-02-04T13:08:05.017Z,10.50
2023-02-04T13:12:07.999Z,10.40
2023-02-04T13:16:10.789Z,10.40
2023-02-04T13:20:14.266Z,11.00
2023-02-04T13:24:18.390Z,10.80
2023-02-04T13:28:21.190Z,10.60
2023-02-04T13:32:24.135Z,10.30
2023-02-04T13:36:28.400Z,10.10
2023-02-04T13:40:33.079Z,10.10
2023-02-04T13:44:35.918Z,10.10
2023-02-04T13:48:38.711Z,10.00
2023-02-04T13:52:41.544Z,10.20
2023-02-04T13:56:45.773Z,10.10
2023-02-04T14:00:48.545Z,9.80
2023-02-04T14:04:51.365Z,9.70
2023-02-04T14:08:54.151Z,9.60
2023-02-04T14:12:58.809Z,9.20
2023-02-04T14:17:01.630Z,9.20
2023-02-04T14:21:04.750Z,9.10
2023-02-04T14:25:09.859Z,9.00
2023-02-04T14:29:15.192Z,8.70
2023-02-04T14:33:21.158Z,8.60
2023-02-04T14:37:28.756Z,8.70
2023-02-04T15:03:44.700Z,8.50
2023-02-04T15:07:48.090Z,8.40
2023-02-04T15:11:53.377Z,8.50
2023-02-04T15:15:56.187Z,8.40
2023-02-04T15:20:00.536Z,8.30
2023-02-04T15:24:03.494Z,8.40
2023-02-04T15:28:06.681Z,8.40
2023-02-04T15:32:10.060Z,8.30
2023-02-04T15:36:14.231Z,8.20
2023-02-04T15:40:20.096Z,8.30
2023-02-04T15:44:24.351Z,8.20
2023-02-04T15:48:31.413Z,8.10
2023-02-04T15:52:36.331Z,8.10
2023-02-04T15:56:40.116Z,8.00
2023-02-04T16:00:43.950Z,7.90
2023-02-04T16:04:50.848Z,7.80
2023-02-04T16:08:55.664Z,7.70
2023-02-04T16:12:58.937Z,7.70
2023-02-04T16:17:03.143Z,7.70
2023-02-04T16:21:07.369Z,7.70
2023-02-04T16:25:12.428Z,7.70
2023-02-04T16:29:15.282Z,7.60
2023-02-04T16:33:18.078Z,7.60
2023-02-04T16:37:21.047Z,7.40
2023-02-04T16:41:25.167Z,7.40
2023-02-04T16:45:28.416Z,7.40
2023-02-04T16:49:31.144Z,7.50
2023-02-04T16:53:33.936Z,7.50
2023-02-04T16:57:38.122Z,7.40
2023-02-04T17:01:43.037Z,7.40
2023-02-04T17:05:45.901Z,7.30
2023-02-04T17:09:48.704Z,7.30
2023-02-04T17:14:00.356Z,7.30
2023-02-04T17:18:05.403Z,7.30
2023-02-04T17:22:09.401Z,7.30
2023-02-04T17:26:12.197Z,7.20
2023-02-04T17:30:17.233Z,7.20
2023-02-04T17:34:20.078Z,7.20
2023-02-04T17:38:23.710Z,7.20
2023-02-04T17:42:27.213Z,7.20
2023-02-04T17:46:33.544Z,7.10
2023-02-04T17:50:40.026Z,7.10
2023-02-04T17:54:45.055Z,7.00
2023-02-04T17:58:49.787Z,6.90
2023-02-04T18:02:53.978Z,6.80
2023-02-04T18:06:59.415Z,6.80
2023-02-04T18:11:02.238Z,6.70
2023-02-04T18:15:25.395Z,6.60
2023-02-04T18:19:31.997Z,6.60
2023-02-04T18:23:35.267Z,6.60
2023-02-04T18:27:38.505Z,6.50
2023-02-04T18:31:51.088Z,6.60
2023-02-04T18:35:59.531Z,6.50
2023-02-04T18:40:22.681Z,6.50
2023-02-04T18:44:31.661Z,6.30
2023-02-04T18:49:02.893Z,6.40
2023-02-04T18:53:23.792Z,6.30
2023-02-04T18:57:35.104Z,6.30
2023-02-04T19:01:42.353Z,6.20
2023-02-04T19:05:48.829Z,6.20
2023-02-04T19:09:52.962Z,6.20
2023-02-04T19:13:57.997Z,6.10
2023-02-04T19:18:16.931Z,6.00
2023-02-04T19:22:21.427Z,6.00
2023-02-04T19:26:36.150Z,5.90
2023-02-04T19:30:46.397Z,5.90
2023-02-04T19:34:56.749Z,5.90
2023-02-04T19:39:01.791Z,5.80
2023-02-04T19:43:19.927Z,5.70
2023-02-04T19:47:30.528Z,5.60
2023-02-04T19:51:33.355Z,5.60
2023-02-04T19:55:51.441Z,5.50
2023-02-04T19:59:58.939Z,5.50
2023-02-04T20:04:02.918Z,5.50
2023-02-04T20:08:24.973Z,5.50
2023-02-04T20:12:31.577Z,5.50
2023-02-04T20:16:40.107Z,5.60
2023-02-04T20:20:46.073Z,5.50
2023-02-04T20:24:51.031Z,5.50
2023-02-04T20:28:55.554Z,5.40
2023-02-04T20:33:22.160Z,5.30
2023-02-04T20:37:28.133Z,5.20
2023-02-04T20:41:37.050Z,5.00
2023-02-04T20:45:47.732Z,5.20
2023-02-04T20:49:57.940Z,5.20
2023-02-04T20:54:07.301Z,5.10
2023-02-04T20:58:19.050Z,5.10
2023-02-04T21:02:21.860Z,5.10
2023-02-04T21:06:29.004Z,5.10
2023-02-04T21:10:33.812Z,5.10
2023-02-04T21:14:39.581Z,5.10
2023-02-04T21:18:42.456Z,5.20
2023-02-04T21:22:49.569Z,5.20
2023-02-04T21:26:52.440Z,5.20
2023-02-04T21:30:55.326Z,5.20
2023-02-04T21:35:00.230Z,5.20
2023-02-04T21:39:04.815Z,5.30
2023-02-04T21:43:12.971Z,5.30
2023-02-04T21:47:19.012Z,5.00
2023-02-04T21:51:23.604Z,4.90
2023-02-04T21:55:28.690Z,4.90
2023-02-04T21:59:31.553Z,5.00
2023-02-04T22:03:34.374Z,5.00
2023-02-04T22:07:38.085Z,4.90
2023-02-04T22:11:42.256Z,4.90
2023-02-04T22:15:48.881Z,4.90
2023-02-04T22:19:51.747Z,5.00
2023-02-04T22:23:54.514Z,5.00
2023-02-04T22:27:58.754Z,5.00
2023-02-04T22:32:02.149Z,5.00
2023-02-04T22:36:08.764Z,5.00
2023-02-04T22:40:14.469Z,5.00
2023-02-04T22:44:18.632Z,5.10
2023-02-04T22:48:21.445Z,5.10
2023-02-04T22:52:24.760Z,5.10
2023-02-04T22:56:27.780Z,5.00
2023-02-04T23:00:32.515Z,5.00
2023-02-04T23:04:35.284Z,5.00
2023-02-04T23:08:38.148Z,5.00
2023-02-04T23:12:40.896Z,4.90
2023-02-04T23:16:46.954Z,4.90
2023-02-04T23:20:49.809Z,4.90
2023-02-04T23:24:52.642Z,4.80
2023-02-04T23:28:55.653Z,4.80
2023-02-04T23:32:59.783Z,4.80
2023-02-04T23:37:02.707Z,5.00
2023-02-04T23:41:05.689Z,4.60
2023-02-04T23:45:09.305Z,4.50
2023-02-04T23:49:13.748Z,4.50
2023-02-04T23:53:18.838Z,4.30
2023-02-04T23:57:22.814Z,4.30
